createdAt,value
2023-05-14T00:01:32.840Z,21.98
2023-05-14T00:03:59.500Z,21.98
2023-05-14T00:06:25.991Z,21.99
2023-05-14T00:08:53.552Z,21.95
2023-05-14T00:11:21.621Z,21.97
2023-05-14T00:13:48.038Z,21.97
2023-05-14T00:16:14.429Z,21.98
2023-05-14T00:18:40.784Z,21.94
2023-05-14T00:21:08.211Z,21.96
2023-05-14T00:23:35.825Z,21.94
2023-05-14T00:26:09.852Z,21.98
2023-05-14T00:28:36.412Z,21.98
2023-05-14T00:31:02.867Z,21.97
2023-05-14T00:33:29.542Z,21.98
2023-05-14T00:35:55.876Z,21.95
2023-05-14T00:38:35.457Z,21.95
2023-05-14T00:41:02.048Z,21.98
2023-05-14T00:43:28.897Z,21.97
2023-05-14T00:45:57.800Z,21.96
2023-05-14T00:48:24.460Z,21.93
2023-05-14T00:50:51.086Z,21.94
2023-05-14T00:53:18.096Z,21.91
2023-05-14T00:55:44.445Z,21.91
2023-05-14T00:58:12.922Z,21.92
2023-05-14T01:00:41.350Z,21.91
2023-05-14T01:03:08.035Z,21.91
2023-05-14T01:05:50.005Z,21.90
2023-05-14T01:08:27.704Z,21.89
2023-05-14T01:11:07.475Z,21.88
2023-05-14T01:13:36.786Z,21.88
2023-05-14T01:16:05.251Z,21.87
2023-05-14T01:18:31.603Z,21.87
2023-05-14T01:21:00.163Z,21.87
2023-05-14T01:23:31.738Z,21.86
2023-05-14T01:26:00.312Z,21.88
2023-05-14T01:28:28.968Z,21.88
2023-05-14T01:31:00.970Z,21.88
2023-05-14T01:33:28.558Z,21.89
2023-05-14T01:38:35.108Z,21.88
2023-05-14T01:41:02.018Z,21.87
2023-05-14T01:43:29.073Z,21.87
2023-05-14T01:45:56.836Z,21.77
2023-05-14T01:48:23.438Z,21.85
2023-05-14T01:50:51.434Z,21.85
2023-05-14T01:53:17.773Z,21.86
2023-05-14T01:55:44.430Z,21.83
2023-05-14T01:58:12.660Z,21.84
2023-05-14T02:00:39.331Z,21.82
2023-05-14T02:03:05.948Z,21.81
2023-05-14T02:05:32.639Z,21.82
2023-05-14T02:07:59.212Z,21.80
2023-05-14T02:10:26.069Z,21.78
2023-05-14T02:12:52.468Z,21.79
2023-05-14T02:15:18.789Z,21.79
2023-05-14T02:17:45.567Z,21.80
2023-05-14T02:20:12.700Z,21.79
2023-05-14T02:22:42.073Z,21.80
2023-05-14T02:25:09.177Z,21.79
2023-05-14T02:27:35.511Z,21.80
2023-05-14T02:30:01.905Z,21.80
2023-05-14T02:32:28.557Z,21.80
2023-05-14T02:34:55.219Z,21.78
2023-05-14T02:37:21.910Z,21.78
2023-05-14T02:39:49.487Z,21.78
2023-05-14T02:42:15.797Z,21.78
2023-05-14T02:44:42.118Z,21.79
2023-05-14T02:47:08.520Z,21.79
2023-05-14T02:49:34.900Z,21.79
2023-05-14T02:52:03.507Z,21.78
2023-05-14T02:54:34.659Z,21.77
2023-05-14T02:57:09.779Z,21.77
2023-05-14T02:59:36.364Z,21.77
2023-05-14T03:02:03.582Z,21.75
2023-05-14T03:04:30.664Z,21.76
2023-05-14T03:06:58.036Z,21.77
2023-05-14T03:09:24.367Z,21.76
2023-05-14T03:11:51.980Z,21.76
2023-05-14T03:14:18.601Z,21.75
2023-05-14T03:16:45.279Z,21.74
2023-05-14T03:19:13.433Z,21.73
2023-05-14T03:21:39.883Z,21.72
2023-05-14T03:24:08.572Z,21.72
2023-05-14T03:26:44.172Z,21.72
2023-05-14T03:29:14.872Z,21.70
2023-05-14T03:31:43.388Z,21.70
2023-05-14T03:34:10.541Z,21.68
2023-05-14T03:36:40.122Z,21.67
2023-05-14T03:39:06.986Z,21.67
2023-05-14T03:41:34.503Z,21.66
2023-05-14T03:44:01.967Z,21.65
2023-05-14T03:46:28.365Z,21.67
2023-05-14T03:48:54.734Z,21.65
2023-05-14T03:51:22.095Z,21.65
2023-05-14T03:53:49.381Z,21.64
2023-05-14T03:56:18.408Z,21.64
2023-05-14T03:58:44.721Z,21.68
2023-05-14T04:01:11.642Z,21.68
2023-05-14T04:03:38.780Z,21.68
2023-05-14T04:06:05.244Z,21.69
2023-05-14T04:08:31.559Z,21.69
2023-05-14T04:10:59.115Z,21.72
2023-05-14T04:13:26.385Z,21.69
2023-05-14T04:15:54.230Z,21.72
2023-05-14T04:18:21.153Z,21.71
2023-05-14T04:20:47.462Z,21.73
2023-05-14T04:23:15.623Z,21.74
2023-05-14T04:25:43.083Z,21.76
2023-05-14T04:28:11.715Z,21.78
2023-05-14T04:30:40.148Z,21.78
2023-05-14T04:33:06.547Z,21.80
2023-05-14T04:35:32.870Z,21.81
2023-05-14T04:38:00.727Z,21.80
2023-05-14T04:40:27.697Z,21.86
2023-05-14T04:42:56.828Z,21.88
2023-05-14T04:45:23.505Z,21.92
2023-05-14T04:47:49.861Z,21.95
2023-05-14T04:50:16.677Z,21.97
2023-05-14T04:52:43.407Z,21.99
2023-05-14T04:55:12.530Z,22.01
2023-05-14T04:57:39.513Z,22.05
2023-05-14T05:00:09.670Z,22.09
2023-05-14T05:02:40.267Z,22.12
2023-05-14T05:05:06.965Z,22.18
2023-05-14T05:07:33.285Z,22.25
2023-05-14T05:10:00.831Z,22.28
2023-05-14T05:12:31.203Z,22.31
2023-05-14T05:15:00.263Z,22.35
2023-05-14T05:17:30.655Z,22.38
2023-05-14T05:19:58.092Z,22.38
2023-05-14T05:22:25.463Z,22.40
2023-05-14T05:24:52.109Z,22.42
2023-05-14T05:27:20.951Z,22.49
2023-05-14T05:29:49.459Z,22.48
2023-05-14T05:32:20.150Z,22.52
2023-05-14T05:34:46.830Z,22.51
2023-05-14T05:37:15.844Z,22.52
2023-05-14T05:39:44.248Z,22.54
2023-05-14T05:42:10.968Z,22.56
2023-05-14T05:44:38.386Z,22.53
2023-05-14T05:47:04.898Z,22.55
2023-05-14T05:49:31.285Z,22.59
2023-05-14T05:51:57.729Z,22.62
2023-05-14T05:54:25.431Z,22.69
2023-05-14T05:56:52.241Z,22.73
2023-05-14T05:59:18.571Z,22.78
2023-05-14T06:01:44.963Z,22.81
2023-05-14T06:04:12.305Z,22.91
2023-05-14T06:06:38.625Z,22.93
2023-05-14T06:09:06.845Z,22.98
2023-05-14T06:11:33.230Z,23.02
2023-05-14T06:13:59.811Z,23.02
2023-05-14T06:16:28.010Z,23.01
2023-05-14T06:18:57.427Z,23.12
2023-05-14T06:21:23.752Z,23.11
2023-05-14T06:23:52.618Z,23.14
2023-05-14T06:26:19.003Z,22.57
2023-05-14T06:28:46.312Z,22.01
2023-05-14T06:31:13.771Z,21.85
2023-05-14T06:33:40.102Z,21.79
2023-05-14T06:36:09.860Z,21.76
2023-05-14T06:38:36.219Z,21.73
2023-05-14T06:41:02.557Z,21.75
2023-05-14T06:43:28.928Z,21.64
2023-05-14T06:45:55.336Z,21.52
2023-05-14T06:48:26.559Z,21.53
2023-05-14T06:50:53.987Z,21.52
2023-05-14T06:53:23.123Z,21.42
2023-05-14T06:55:50.056Z,21.47
2023-05-14T06:58:18.480Z,21.47
2023-05-14T07:00:45.117Z,21.30
2023-05-14T07:03:11.562Z,21.37
2023-05-14T07:05:37.899Z,21.32
2023-05-14T07:08:04.467Z,21.29
2023-05-14T07:10:33.816Z,21.12
2023-05-14T07:13:00.191Z,21.33
2023-05-14T07:15:29.187Z,21.46
2023-05-14T07:17:57.731Z,21.43
2023-05-14T07:20:25.552Z,21.43
2023-05-14T07:22:53.713Z,21.54
2023-05-14T07:25:22.415Z,21.55
2023-05-14T07:27:50.567Z,21.53
2023-05-14T07:30:17.479Z,21.60
2023-05-14T07:32:45.750Z,21.57
2023-05-14T07:35:12.096Z,21.59
2023-05-14T07:37:39.729Z,21.26
2023-05-14T07:40:06.356Z,21.30
2023-05-14T07:42:37.149Z,21.40
2023-05-14T07:45:04.075Z,21.53
2023-05-14T07:47:30.615Z,21.43
2023-05-14T07:49:57.400Z,21.34
2023-05-14T07:52:24.543Z,21.27
2023-05-14T07:54:51.666Z,21.13
2023-05-14T07:57:23.690Z,21.22
2023-05-14T07:59:50.268Z,21.40
2023-05-14T08:02:19.532Z,21.51
2023-05-14T08:04:45.934Z,21.53
2023-05-14T08:07:12.609Z,21.25
2023-05-14T08:09:40.127Z,21.22
2023-05-14T08:12:07.482Z,21.33
2023-05-14T08:14:35.465Z,21.40
2023-05-14T08:17:03.993Z,21.20
2023-05-14T08:19:30.484Z,20.83
2023-05-14T08:21:57.541Z,21.01
2023-05-14T08:24:24.124Z,21.18
2023-05-14T08:26:53.173Z,21.29
2023-05-14T08:29:19.750Z,21.46
2023-05-14T08:31:46.306Z,21.40
2023-05-14T08:34:12.625Z,21.62
2023-05-14T08:36:40.496Z,21.56
2023-05-14T08:39:14.069Z,21.29
2023-05-14T08:41:42.911Z,20.95
2023-05-14T08:44:20.028Z,20.99
2023-05-14T08:46:46.985Z,21.07
2023-05-14T08:49:13.268Z,21.25
2023-05-14T08:51:40.929Z,21.18
2023-05-14T08:54:07.273Z,21.41
2023-05-14T08:56:35.203Z,21.47
2023-05-14T08:59:01.859Z,21.48
2023-05-14T09:01:28.257Z,21.82
2023-05-14T09:03:54.926Z,21.90
2023-05-14T09:06:38.743Z,22.06
2023-05-14T09:09:05.331Z,22.05
2023-05-14T09:11:31.675Z,22.09
2023-05-14T09:14:00.773Z,22.03
2023-05-14T09:16:27.234Z,21.80
2023-05-14T09:18:55.360Z,21.86
2023-05-14T09:21:22.252Z,21.90
2023-05-14T09:23:51.997Z,21.95
2023-05-14T09:26:18.878Z,21.93
2023-05-14T09:28:45.658Z,21.91
2023-05-14T09:31:12.582Z,21.90
2023-05-14T09:33:39.297Z,21.93
2023-05-14T09:36:08.152Z,21.89
2023-05-14T09:38:34.482Z,21.97
2023-05-14T09:41:02.787Z,21.98
2023-05-14T09:43:29.123Z,21.91
2023-05-14T09:45:55.597Z,21.99
2023-05-14T09:48:22.873Z,22.01
2023-05-14T09:50:49.314Z,21.93
2023-05-14T09:53:18.041Z,22.02
2023-05-14T09:55:45.409Z,22.06
2023-05-14T09:58:11.730Z,22.11
2023-05-14T10:00:42.232Z,22.13
2023-05-14T10:03:10.059Z,22.03
2023-05-14T10:05:37.024Z,21.93
2023-05-14T10:08:03.961Z,21.99
2023-05-14T10:10:33.326Z,22.06
2023-05-14T10:13:04.197Z,22.05
2023-05-14T10:15:33.444Z,22.06
2023-05-14T10:18:00.764Z,22.13
2023-05-14T10:20:27.234Z,22.08
2023-05-14T10:22:54.649Z,22.12
2023-05-14T10:25:21.220Z,22.12
2023-05-14T10:27:49.881Z,22.08
2023-05-14T10:30:18.994Z,22.15
2023-05-14T10:32:47.029Z,22.27
2023-05-14T10:35:17.363Z,22.29
2023-05-14T10:37:44.519Z,21.73
2023-05-14T10:40:11.055Z,21.87
2023-05-14T10:42:40.926Z,21.85
2023-05-14T10:45:10.311Z,21.89
2023-05-14T10:47:37.398Z,21.89
2023-05-14T10:50:06.015Z,21.88
2023-05-14T10:52:34.995Z,21.88
2023-05-14T10:55:03.636Z,21.79
2023-05-14T10:57:32.133Z,21.88
2023-05-14T10:59:59.725Z,21.74
2023-05-14T11:02:26.753Z,21.86
2023-05-14T11:05:00.144Z,22.09
2023-05-14T11:07:30.636Z,22.05
2023-05-14T11:10:04.880Z,22.03
2023-05-14T11:12:31.797Z,21.90
2023-05-14T11:14:59.431Z,21.90
2023-05-14T11:17:26.864Z,21.78
2023-05-14T11:19:53.447Z,22.06
2023-05-14T11:22:21.709Z,22.24
2023-05-14T11:24:48.291Z,22.37
2023-05-14T11:27:16.472Z,22.34
2023-05-14T11:29:46.479Z,22.27
2023-05-14T11:32:13.054Z,22.11
2023-05-14T11:34:40.458Z,22.09
2023-05-14T11:37:15.443Z,22.09
2023-05-14T11:39:53.184Z,22.26
2023-05-14T11:42:21.744Z,22.37
2023-05-14T11:44:51.989Z,22.38
2023-05-14T11:47:18.896Z,22.34
2023-05-14T11:49:48.833Z,22.39
2023-05-14T11:52:16.616Z,22.39
2023-05-14T11:54:44.439Z,22.37
2023-05-14T11:57:12.028Z,22.35
2023-05-14T11:59:38.734Z,22.26
2023-05-14T12:02:06.505Z,22.30
2023-05-14T12:04:32.942Z,22.37
2023-05-14T12:10:21.053Z,22.37
2023-05-14T12:12:47.403Z,22.37
2023-05-14T12:15:13.859Z,22.40
2023-05-14T12:17:40.364Z,22.39
2023-05-14T12:20:13.456Z,22.35
2023-05-14T12:22:41.114Z,22.42
2023-05-14T12:25:11.216Z,22.41
2023-05-14T12:27:37.503Z,22.40
2023-05-14T12:30:20.117Z,22.40
2023-05-14T12:32:48.790Z,22.40
2023-05-14T12:35:15.241Z,22.45
2023-05-14T12:37:42.507Z,22.41
2023-05-14T12:40:11.529Z,22.37
2023-05-14T12:42:37.879Z,22.35
2023-05-14T12:45:07.207Z,22.26
2023-05-14T12:47:33.721Z,22.23
2023-05-14T12:50:00.073Z,22.12
2023-05-14T12:52:37.748Z,22.08
2023-05-14T12:55:04.696Z,22.15
2023-05-14T12:57:31.382Z,22.20
2023-05-14T12:59:57.714Z,22.18
2023-05-14T13:02:24.018Z,22.25
2023-05-14T13:04:50.312Z,22.34
2023-05-14T13:07:16.609Z,22.40
2023-05-14T13:09:42.895Z,22.43
2023-05-14T13:12:09.512Z,22.41
2023-05-14T13:14:36.398Z,22.31
2023-05-14T13:17:03.022Z,22.33
2023-05-14T13:19:29.372Z,22.31
2023-05-14T13:21:55.646Z,22.32
2023-05-14T13:24:22.004Z,22.36
2023-05-14T13:26:48.282Z,22.44
2023-05-14T13:29:14.579Z,22.44
2023-05-14T13:31:41.214Z,22.16
2023-05-14T13:34:08.000Z,22.33
2023-05-14T13:36:39.326Z,22.25
2023-05-14T13:39:06.272Z,22.16
2023-05-14T13:41:35.433Z,22.17
2023-05-14T13:44:01.733Z,21.97
2023-05-14T13:46:28.048Z,21.88
2023-05-14T13:48:54.386Z,21.77
2023-05-14T13:51:20.674Z,21.82
2023-05-14T13:53:46.962Z,21.70
2023-05-14T13:56:13.294Z,21.65
2023-05-14T13:58:39.595Z,21.67
2023-05-14T14:01:05.924Z,21.64
2023-05-14T14:03:32.236Z,21.75
2023-05-14T14:05:58.518Z,21.72
2023-05-14T14:08:24.883Z,21.49
2023-05-14T14:10:51.584Z,21.68
2023-05-14T14:13:17.866Z,21.68
2023-05-14T14:15:44.286Z,21.73
2023-05-14T14:18:10.646Z,21.69
2023-05-14T14:20:36.972Z,21.63
2023-05-14T14:23:03.300Z,21.67
2023-05-14T14:25:29.601Z,21.66
2023-05-14T14:27:55.955Z,21.77
2023-05-14T14:30:22.265Z,21.88
2023-05-14T14:32:48.664Z,21.66
2023-05-14T14:35:15.338Z,21.54
2023-05-14T14:37:42.852Z,21.53
2023-05-14T14:40:11.806Z,21.65
2023-05-14T14:42:38.141Z,21.60
2023-05-14T14:45:04.879Z,21.48
2023-05-14T14:47:31.710Z,21.56
2023-05-14T14:49:58.008Z,21.49
2023-05-14T14:52:24.552Z,21.41
2023-05-14T14:54:51.032Z,21.50
2023-05-14T14:57:17.415Z,21.41
2023-05-14T14:59:43.689Z,21.46
2023-05-14T15:02:10.023Z,21.58
2023-05-14T15:04:36.749Z,21.52
2023-05-14T15:07:03.037Z,21.54
2023-05-14T15:09:29.321Z,21.53
2023-05-14T15:11:55.602Z,21.52
2023-05-14T15:14:21.952Z,21.49
2023-05-14T15:16:50.815Z,21.50
2023-05-14T15:19:17.460Z,21.54
2023-05-14T15:21:43.784Z,21.53
2023-05-14T15:24:15.926Z,21.50
2023-05-14T15:26:42.224Z,21.36
2023-05-14T15:29:08.577Z,21.30
2023-05-14T15:31:34.883Z,21.40
2023-05-14T15:34:01.500Z,21.65
2023-05-14T15:36:28.542Z,21.83
2023-05-14T15:38:54.883Z,21.90
2023-05-14T15:41:21.185Z,21.89
2023-05-14T15:43:47.480Z,21.96
2023-05-14T15:46:13.836Z,21.99
2023-05-14T15:48:40.201Z,22.01
2023-05-14T15:51:06.512Z,22.03
2023-05-14T15:53:32.808Z,22.04
2023-05-14T15:55:59.091Z,22.06
2023-05-14T15:58:26.056Z,22.07
2023-05-14T16:00:52.532Z,22.07
2023-05-14T16:03:18.947Z,22.10
2023-05-14T16:05:45.351Z,22.10
2023-05-14T16:08:11.642Z,22.11
2023-05-14T16:10:38.481Z,22.12
2023-05-14T16:13:04.831Z,22.11
2023-05-14T16:15:31.250Z,22.15
2023-05-14T16:17:57.617Z,22.11
2023-05-14T16:20:24.139Z,22.14
2023-05-14T16:22:50.612Z,22.08
2023-05-14T16:25:18.632Z,22.11
2023-05-14T16:27:45.002Z,22.13
2023-05-14T16:30:11.400Z,22.15
2023-05-14T16:32:38.183Z,22.16
2023-05-14T16:35:04.683Z,22.17
2023-05-14T16:37:30.989Z,22.17
2023-05-14T16:39:57.304Z,22.17
2023-05-14T16:42:23.620Z,22.15
2023-05-14T16:44:49.963Z,22.15
2023-05-14T16:47:16.396Z,22.18
2023-05-14T16:49:43.226Z,22.18
2023-05-14T16:52:09.564Z,22.19
2023-05-14T16:54:36.390Z,22.19
2023-05-14T16:57:02.716Z,22.22
2023-05-14T16:59:29.033Z,22.24
2023-05-14T17:01:55.981Z,22.22
2023-05-14T17:04:24.858Z,22.25
2023-05-14T17:06:51.246Z,22.29
2023-05-14T17:09:17.681Z,22.27
2023-05-14T17:11:44.001Z,22.31
2023-05-14T17:14:10.516Z,22.23
2023-05-14T17:16:38.678Z,21.84
2023-05-14T17:19:05.105Z,21.54
2023-05-14T17:21:31.578Z,21.38
2023-05-14T17:23:57.963Z,21.31
2023-05-14T17:26:24.840Z,21.28
2023-05-14T17:28:51.160Z,21.16
2023-05-14T17:31:17.514Z,21.23
2023-05-14T17:33:43.893Z,21.47
2023-05-14T17:36:10.236Z,21.79
2023-05-14T17:38:36.559Z,21.97
2023-05-14T17:41:02.879Z,22.04
2023-05-14T17:43:29.179Z,22.09
2023-05-14T17:45:55.493Z,22.07
2023-05-14T17:48:22.582Z,22.15
2023-05-14T17:50:48.979Z,22.21
2023-05-14T17:53:15.295Z,22.19
2023-05-14T17:55:44.741Z,22.12
2023-05-14T17:58:13.277Z,22.17
2023-05-14T18:00:39.898Z,22.19
2023-05-14T18:03:07.731Z,22.19
2023-05-14T18:05:34.222Z,22.19
2023-05-14T18:08:00.568Z,22.10
2023-05-14T18:10:26.892Z,22.17
2023-05-14T18:12:53.220Z,22.15
2023-05-14T18:15:20.427Z,22.15
2023-05-14T18:17:46.846Z,22.14
2023-05-14T18:20:13.223Z,22.13
2023-05-14T18:22:39.600Z,22.11
2023-05-14T18:25:07.118Z,22.11
2023-05-14T18:27:33.778Z,22.06
2023-05-14T18:30:00.142Z,22.07
2023-05-14T18:32:26.510Z,22.10
2023-05-14T18:34:52.906Z,22.04
2023-05-14T18:37:19.245Z,22.06
2023-05-14T18:39:45.563Z,22.07
2023-05-14T18:42:11.930Z,22.05
2023-05-14T18:44:41.209Z,22.03
2023-05-14T18:47:07.541Z,22.02
2023-05-14T18:49:34.216Z,22.03
2023-05-14T18:52:00.626Z,22.02
2023-05-14T18:54:26.949Z,22.00
2023-05-14T18:56:53.272Z,22.00
2023-05-14T18:59:19.642Z,22.00
2023-05-14T19:01:46.153Z,21.98
2023-05-14T19:04:12.494Z,21.98
2023-05-14T19:06:40.502Z,21.98
2023-05-14T19:09:07.105Z,21.98
2023-05-14T19:11:33.418Z,21.95
2023-05-14T19:13:59.749Z,21.85
2023-05-14T19:16:26.303Z,21.94
2023-05-14T19:18:52.780Z,21.93
2023-05-14T19:21:19.176Z,21.92
2023-05-14T19:23:45.525Z,21.93
2023-05-14T19:26:11.832Z,21.92
2023-05-14T19:28:38.818Z,21.92
2023-05-14T19:31:05.337Z,21.94
2023-05-14T19:33:31.713Z,21.87
2023-05-14T19:35:58.044Z,21.85
2023-05-14T19:38:24.364Z,21.84
2023-05-14T19:40:51.144Z,21.82
2023-05-14T19:43:17.507Z,21.81
2023-05-14T19:45:45.691Z,21.78
2023-05-14T19:48:13.564Z,21.79
2023-05-14T19:50:41.387Z,21.78
2023-05-14T19:53:07.719Z,21.76
2023-05-14T19:55:34.049Z,21.77
2023-05-14T19:58:00.360Z,21.76
2023-05-14T20:00:27.139Z,21.74
2023-05-14T20:02:59.716Z,21.70
2023-05-14T20:05:26.856Z,21.68
2023-05-14T20:07:54.500Z,21.75
2023-05-14T20:10:20.980Z,21.77
2023-05-14T20:12:47.302Z,21.71
2023-05-14T20:15:13.736Z,21.79
2023-05-14T20:17:40.454Z,21.81
2023-05-14T20:20:07.036Z,21.82
2023-05-14T20:22:33.364Z,21.84
2023-05-14T20:24:59.693Z,21.85
2023-05-14T20:27:26.003Z,21.86
2023-05-14T20:29:53.941Z,21.86
2023-05-14T20:32:24.908Z,21.88
2023-05-14T20:34:51.858Z,21.85
2023-05-14T20:37:21.499Z,21.84
2023-05-14T20:39:47.896Z,21.84
2023-05-14T20:42:14.260Z,21.83
2023-05-14T20:44:40.622Z,21.83
2023-05-14T20:47:06.973Z,21.84
2023-05-14T20:49:33.277Z,21.83
2023-05-14T20:51:59.632Z,21.82
2023-05-14T20:54:26.025Z,21.81
2023-05-14T20:56:52.391Z,21.80
2023-05-14T20:59:18.725Z,21.81
2023-05-14T21:01:45.109Z,21.81
2023-05-14T21:04:11.557Z,21.80
2023-05-14T21:06:38.067Z,21.81
2023-05-14T21:09:04.382Z,21.81
2023-05-14T21:11:30.757Z,21.81
2023-05-14T21:13:57.288Z,21.83
2023-05-14T21:16:23.652Z,21.82
2023-05-14T21:18:50.036Z,21.82
2023-05-14T21:21:16.427Z,21.83
2023-05-14T21:23:42.776Z,21.83
2023-05-14T21:26:09.119Z,21.84
2023-05-14T21:28:35.548Z,21.84
2023-05-14T21:31:01.870Z,21.83
2023-05-14T21:33:28.421Z,21.84
2023-05-14T21:35:54.852Z,21.85
2023-05-14T21:38:21.514Z,21.84
2023-05-14T21:40:47.833Z,21.84
2023-05-14T21:43:14.160Z,21.84
2023-05-14T21:45:40.568Z,21.83
2023-05-14T21:48:07.014Z,21.84
2023-05-14T21:50:33.446Z,21.84
2023-05-14T21:52:59.785Z,21.82
2023-05-14T21:55:27.839Z,21.83
2023-05-14T21:57:54.442Z,21.83
2023-05-14T22:00:23.959Z,21.84
2023-05-14T22:02:50.981Z,21.82
2023-05-14T22:05:17.331Z,21.83
2023-05-14T22:07:43.662Z,21.83
2023-05-14T22:10:10.133Z,21.83
2023-05-14T22:12:36.448Z,21.82
2023-05-14T22:15:02.886Z,21.84
2023-05-14T22:17:29.251Z,21.81
2023-05-14T22:19:55.595Z,21.81
2023-05-14T22:22:21.908Z,21.81
2023-05-14T22:24:48.241Z,21.80
2023-05-14T22:27:14.838Z,21.78
2023-05-14T22:29:41.520Z,21.78
2023-05-14T22:32:08.142Z,21.78
2023-05-14T22:34:34.500Z,21.77
2023-05-14T22:37:01.046Z,21.77
2023-05-14T22:39:27.382Z,21.76
2023-05-14T22:41:55.213Z,21.75
2023-05-14T22:44:24.838Z,21.75
2023-05-14T22:46:51.279Z,21.75
2023-05-14T22:49:17.635Z,21.74
2023-05-14T22:51:44.022Z,21.74
2023-05-14T22:54:10.520Z,21.73
2023-05-14T22:56:37.147Z,21.73
2023-05-14T22:59:03.473Z,21.72
2023-05-14T23:01:29.947Z,21.73
2023-05-14T23:03:56.290Z,21.72
2023-05-14T23:06:22.832Z,21.74
2023-05-14T23:08:49.164Z,21.73
2023-05-14T23:11:15.498Z,21.73
2023-05-14T23:13:41.907Z,21.74
2023-05-14T23:16:08.313Z,21.74
2023-05-14T23:18:34.813Z,21.74
2023-05-14T23:21:01.383Z,21.74
2023-05-14T23:23:27.713Z,21.73
2023-05-14T23:25:54.351Z,21.73
2023-05-14T23:28:20.672Z,21.71
2023-05-14T23:30:47.022Z,21.71
2023-05-14T23:33:13.348Z,21.70
2023-05-14T23:35:39.678Z,21.69
2023-05-14T23:38:06.005Z,21.69
2023-05-14T23:40:32.341Z,21.68
2023-05-14T23:43:00.163Z,21.67
2023-05-14T23:45:26.789Z,21.68
2023-05-14T23:48:02.314Z,21.67
2023-05-14T23:50:28.635Z,21.67
2023-05-14T23:52:55.156Z,21.66
2023-05-14T23:55:21.568Z,21.66
2023-05-14T23:57:48.238Z,21.66
